Time;durP1;ratioP1;P1;durP2;ratioP2;P2;SDS_P1;SDS_P2;PMS_P1;PMS_P2;Temp;Humidity;BMP_temperature;BMP_pressure;BME280_temperature;BME280_humidity;BME280_pressure;Samples;Min_cycle;Max_cycle;Signal;HPM_P1;HPM_P2
2021/08/29 00:00:32;;;;;;;5.25;3.42;;;;;;;12.12;86.32;96313.81;4954502;28;20054;-73
2021/08/29 00:02:59;;;;;;;4.45;3.13;;;;;;;12.11;86.20;96311.38;4952284;29;20509;-73
2021/08/29 00:05:25;;;;;;;7.65;3.50;;;;;;;12.13;86.24;96309.94;4954504;29;20066;-74
2021/08/29 00:07:52;;;;;;;6.43;3.88;;;;;;;12.13;86.05;96309.94;4949091;29;20506;-74
2021/08/29 00:10:20;;;;;;;5.78;3.50;;;;;;;12.11;85.70;96312.22;4953431;28;20070;-74
2021/08/29 00:12:46;;;;;;;5.88;3.22;;;;;;;12.08;85.73;96312.06;4954725;29;20055;-74
2021/08/29 00:15:13;;;;;;;5.60;3.53;;;;;;;12.09;86.05;96313.66;4954130;29;20055;-73
2021/08/29 00:17:39;;;;;;;4.72;4.03;;;;;;;12.11;86.11;96320.41;4954584;29;20047;-73
2021/08/29 00:20:06;;;;;;;4.57;3.75;;;;;;;12.06;85.60;96317.84;4954169;29;20062;-74
2021/08/29 00:22:33;;;;;;;7.93;4.10;;;;;;;12.01;85.90;96312.59;4954555;29;20062;-74
2021/08/29 00:25:00;;;;;;;5.20;4.28;;;;;;;12.01;86.06;96312.59;4954526;29;20630;-73
2021/08/29 00:27:27;;;;;;;8.43;4.20;;;;;;;12.00;86.55;96309.03;4954255;29;20047;-73
2021/08/29 00:29:54;;;;;;;6.00;4.00;;;;;;;12.01;86.34;96312.59;4954142;29;20403;-76
2021/08/29 00:32:20;;;;;;;4.93;4.15;;;;;;;12.05;86.15;96308.03;4953988;29;20050;-73
2021/08/29 00:34:47;;;;;;;4.78;3.83;;;;;;;11.97;86.28;96306.97;4954154;29;20047;-74
2021/08/29 00:37:13;;;;;;;4.95;4.00;;;;;;;11.92;86.76;96309.88;4953966;29;20043;-74
2021/08/29 00:39:40;;;;;;;6.13;4.10;;;;;;;11.96;86.93;96310.03;4953874;29;20063;-73
2021/08/29 00:42:08;;;;;;;5.43;3.65;;;;;;;11.99;86.88;96309.38;4953480;29;20458;-74
2021/08/29 00:44:36;;;;;;;5.28;4.10;;;;;;;12.04;86.62;96311.13;4954232;29;20062;-74
2021/08/29 00:47:04;;;;;;;7.15;4.50;;;;;;;12.07;86.73;96310.47;4953841;29;20050;-73
2021/08/29 00:49:31;;;;;;;7.43;4.47;;;;;;;12.13;86.49;96312.69;4946212;29;20062;-74
2021/08/29 00:52:00;;;;;;;6.25;4.20;;;;;;;12.16;86.12;96309.31;4953846;29;20425;-73
2021/08/29 00:54:29;;;;;;;6.35;4.03;;;;;;;12.21;85.92;96305.56;4953765;29;20062;-73
2021/08/29 00:56:55;;;;;;;6.53;4.30;;;;;;;12.19;85.53;96300.44;4953814;29;20047;-73
2021/08/29 00:59:23;;;;;;;6.90;3.97;;;;;;;12.18;85.08;96298.84;4953293;29;20059;-74
2021/08/29 01:01:55;;;;;;;5.68;3.83;;;;;;;12.15;85.44;96307.69;4953974;29;20043;-73
2021/08/29 01:04:28;;;;;;;6.22;3.95;;;;;;;12.10;85.49;96299.66;4953523;29;20070;-74
2021/08/29 01:07:01;;;;;;;6.72;4.10;;;;;;;12.03;85.90;96299.41;4953484;29;20051;-74
2021/08/29 01:09:27;;;;;;;6.07;4.00;;;;;;;12.05;86.46;96297.13;4953348;29;20051;-74
2021/08/29 01:11:55;;;;;;;5.13;4.15;;;;;;;12.11;85.97;96301.28;4952581;28;20055;-74
2021/08/29 01:14:25;;;;;;;5.93;4.20;;;;;;;12.13;85.83;96300.97;4952473;29;20120;-74
2021/08/29 01:16:57;;;;;;;5.80;4.10;;;;;;;12.10;85.47;96302.41;4951730;29;20055;-73
2021/08/29 01:19:39;;;;;;;5.75;3.75;;;;;;;12.09;85.62;96302.75;4953314;29;20055;-74
2021/08/29 01:22:08;;;;;;;5.10;3.90;;;;;;;12.08;85.43;96293.75;4953135;29;20648;-73
2021/08/29 01:24:35;;;;;;;5.20;3.90;;;;;;;12.03;85.57;96299.41;4953590;29;20054;-73
2021/08/29 01:27:09;;;;;;;6.68;4.25;;;;;;;12.00;85.86;96289.94;4952833;29;20055;-74
2021/08/29 01:29:37;;;;;;;5.95;3.80;;;;;;;12.00;85.96;96291.84;4953512;29;20062;-73
2021/08/29 01:32:06;;;;;;;5.88;4.78;;;;;;;12.02;85.86;96297.81;4952882;29;20043;-74
2021/08/29 01:34:35;;;;;;;5.63;4.38;;;;;;;12.01;85.50;96288.03;4953691;29;20057;-74
2021/08/29 01:37:02;;;;;;;7.53;4.53;;;;;;;12.02;85.59;96292.34;4953213;29;20055;-73
2021/08/29 01:39:32;;;;;;;6.50;4.38;;;;;;;12.05;85.77;96297.13;4952800;29;20070;-74
2021/08/29 01:42:00;;;;;;;6.60;4.18;;;;;;;12.00;85.49;96302.78;4953168;29;20502;-74
2021/08/29 01:44:26;;;;;;;7.63;5.00;;;;;;;11.97;85.84;96300.72;4953186;29;20043;-74
2021/08/29 01:46:54;;;;;;;7.35;4.07;;;;;;;11.98;86.07;96305.03;4953039;29;20050;-74
2021/08/29 01:49:23;;;;;;;5.70;4.53;;;;;;;12.04;85.82;96306.44;4952890;29;20051;-74
2021/08/29 01:51:49;;;;;;;6.93;4.18;;;;;;;12.02;85.52;96297.81;4953147;29;20047;-74
2021/08/29 01:54:16;;;;;;;7.22;4.20;;;;;;;12.02;86.10;96293.13;4952507;29;20055;-74
2021/08/29 01:57:03;;;;;;;7.85;3.92;;;;;;;12.02;85.36;96286.88;4952868;29;20055;-74
2021/08/29 01:59:30;;;;;;;7.45;4.05;;;;;;;12.00;85.59;96289.94;4933792;29;20058;-74
2021/08/29 02:01:58;;;;;;;5.53;4.40;;;;;;;12.02;85.60;96287.69;4933829;29;20060;-73
2021/08/29 02:04:27;;;;;;;6.78;4.38;;;;;;;12.04;85.60;96290.06;4933364;29;20055;-74
2021/08/29 02:07:03;;;;;;;5.07;3.95;;;;;;;12.03;85.62;96296.66;4933660;29;20517;-74
2021/08/29 02:09:32;;;;;;;5.47;3.95;;;;;;;12.04;85.40;96283.81;4933200;29;20107;-74
2021/08/29 02:12:00;;;;;;;5.20;3.80;;;;;;;12.06;85.03;96287.84;4933737;29;20055;-74
2021/08/29 02:14:30;;;;;;;5.40;4.00;;;;;;;12.04;85.33;96284.63;4933873;29;20048;-74
2021/08/29 02:17:00;;;;;;;5.90;4.00;;;;;;;12.04;85.63;96284.63;4933706;29;20074;-74
2021/08/29 02:19:30;;;;;;;5.78;4.15;;;;;;;12.03;85.28;96285.75;4933638;29;20047;-74
2021/08/29 02:21:57;;;;;;;7.57;4.05;;;;;;;12.00;84.99;96283.66;4933688;29;20074;-74
2021/08/29 02:24:24;;;;;;;5.65;4.10;;;;;;;12.00;85.02;96283.66;4935517;29;20051;-74
2021/08/29 02:26:51;;;;;;;6.47;4.43;;;;;;;12.00;85.54;96278.22;4937696;29;20056;-75
2021/08/29 02:29:19;;;;;;;7.07;4.60;;;;;;;11.99;85.60;96282.88;4936964;29;20044;-74
2021/08/29 02:31:46;;;;;;;6.32;4.63;;;;;;;12.00;85.73;96283.66;4937498;29;20044;-73
2021/08/29 02:34:14;;;;;;;8.02;5.13;;;;;;;11.98;85.24;96288.66;4937117;29;20533;-74
2021/08/29 02:36:42;;;;;;;6.68;4.60;;;;;;;12.02;85.61;96281.44;4937404;29;20051;-74
2021/08/29 02:39:09;;;;;;;7.10;4.68;;;;;;;12.04;85.34;96284.63;4936350;29;20044;-74
2021/08/29 02:41:36;;;;;;;6.00;4.47;;;;;;;12.08;84.83;96282.84;4937415;29;20048;-73
2021/08/29 02:44:05;;;;;;;8.55;4.32;;;;;;;12.05;84.58;96271.78;4936930;29;20095;-74
2021/08/29 02:46:31;;;;;;;6.22;4.53;;;;;;;12.00;84.57;96278.22;4937422;29;20052;-73
2021/08/29 02:48:58;;;;;;;6.03;4.43;;;;;;;11.92;84.81;96270.88;4936984;29;20047;-74
2021/08/29 02:51:26;;;;;;;6.40;4.70;;;;;;;11.87;85.28;96271.06;4936688;29;20047;-74
2021/08/29 02:53:53;;;;;;;6.30;4.60;;;;;;;11.90;85.65;96278.56;4936911;29;20051;-73
2021/08/29 02:56:21;;;;;;;6.07;4.78;;;;;;;11.88;85.65;96270.72;4936338;29;20048;-73
2021/08/29 02:58:49;;;;;;;7.15;4.07;;;;;;;11.89;85.51;96271.53;4950802;28;20126;-73
2021/08/29 03:01:16;;;;;;;6.20;4.63;;;;;;;11.82;85.34;96274.78;4955611;29;20051;-73
2021/08/29 03:03:44;;;;;;;5.32;4.18;;;;;;;11.80;85.46;96268.81;4955604;29;20059;-73
2021/08/29 03:06:11;;;;;;;5.90;4.40;;;;;;;11.78;85.34;96260.16;4955322;29;20047;-73
2021/08/29 03:08:39;;;;;;;5.88;4.38;;;;;;;11.74;85.48;96268.22;4954944;29;20414;-73
2021/08/29 03:11:06;;;;;;;6.07;4.40;;;;;;;11.68;85.70;96268.69;4955135;29;20050;-73
2021/08/29 03:13:34;;;;;;;6.22;4.40;;;;;;;11.63;86.29;96258.75;4955669;29;20511;-73
2021/08/29 03:16:01;;;;;;;6.85;4.63;;;;;;;11.63;86.23;96258.75;4955475;29;20050;-73
2021/08/29 03:18:29;;;;;;;6.80;4.72;;;;;;;11.59;86.23;96252.38;4955188;29;20047;-73
2021/08/29 03:20:56;;;;;;;7.13;5.10;;;;;;;11.57;85.99;96249.16;4955527;29;20047;-74
2021/08/29 03:23:22;;;;;;;13.18;5.30;;;;;;;11.56;86.48;96246.78;4954876;29;20047;-73
2021/08/29 03:25:51;;;;;;;6.70;4.65;;;;;;;11.57;86.33;96243.72;4955573;29;20055;-73
2021/08/29 03:28:18;;;;;;;8.07;4.78;;;;;;;11.59;86.49;96251.56;4955244;29;20047;-73
2021/08/29 03:30:45;;;;;;;7.63;4.85;;;;;;;11.63;86.43;96247.84;4955602;29;20062;-74
2021/08/29 03:33:12;;;;;;;7.53;5.05;;;;;;;11.61;86.45;96244.66;4954813;29;20075;-73
2021/08/29 03:35:38;;;;;;;10.23;5.30;;;;;;;11.63;86.57;96250.56;4954890;28;20114;-73
2021/08/29 03:38:05;;;;;;;7.85;5.05;;;;;;;11.64;86.80;96248.66;4955016;29;20065;-73
2021/08/29 03:40:32;;;;;;;9.18;5.22;;;;;;;11.67;86.16;96248.81;4954910;29;20522;-73
2021/08/29 03:43:01;;;;;;;6.45;4.75;;;;;;;11.66;86.02;96257.31;4955151;29;20514;-74
2021/08/29 03:45:27;;;;;;;5.95;4.40;;;;;;;11.70;85.51;96256.34;4954959;29;20051;-73
2021/08/29 03:47:54;;;;;;;8.57;4.38;;;;;;;11.69;84.72;96249.28;4955209;29;20499;-73
2021/08/29 03:50:21;;;;;;;6.20;4.43;;;;;;;11.69;84.65;96253.91;4954683;29;20051;-73
2021/08/29 03:52:50;;;;;;;7.00;4.10;;;;;;;11.67;84.82;96259.72;4955023;29;20059;-72
2021/08/29 03:55:17;;;;;;;7.50;4.22;;;;;;;11.67;84.27;96251.53;4954772;29;20050;-74
2021/08/29 03:57:44;;;;;;;8.27;4.38;;;;;;;11.66;84.55;96258.13;4954838;29;20051;-73
2021/08/29 04:00:13;;;;;;;5.13;3.92;;;;;;;11.68;84.67;96255.06;4954586;29;20061;-73
2021/08/29 04:02:40;;;;;;;9.15;4.13;;;;;;;11.68;84.67;96250.41;4954974;29;20051;-73
2021/08/29 04:05:08;;;;;;;7.15;4.03;;;;;;;11.67;84.83;96254.25;4954368;29;20047;-73
2021/08/29 04:07:35;;;;;;;5.90;3.90;;;;;;;11.71;85.16;96249.75;4954438;29;20051;-73
2021/08/29 04:10:02;;;;;;;5.97;4.45;;;;;;;11.75;85.01;96250.72;4953342;29;20070;-73
2021/08/29 04:12:31;;;;;;;6.45;4.10;;;;;;;11.77;84.81;96237.53;4954511;29;20047;-73
2021/08/29 04:14:59;;;;;;;5.13;4.03;;;;;;;11.79;84.59;96244.59;4954932;29;20051;-74
2021/08/29 04:17:27;;;;;;;5.20;3.92;;;;;;;11.82;84.57;96244.75;4954434;29;20416;-72
2021/08/29 04:19:55;;;;;;;5.75;4.22;;;;;;;11.82;84.78;96238.50;4954451;29;20051;-73
2021/08/29 04:22:21;;;;;;;6.22;4.10;;;;;;;11.85;84.38;96237.84;4954002;29;20059;-73
2021/08/29 04:24:48;;;;;;;5.72;4.15;;;;;;;11.85;84.40;96243.28;4954533;29;20048;-74
2021/08/29 04:27:15;;;;;;;5.85;4.32;;;;;;;11.83;84.16;96245.56;4953766;29;20413;-73
2021/08/29 04:29:42;;;;;;;6.82;4.13;;;;;;;11.82;84.55;96243.97;4954371;29;20062;-73
2021/08/29 04:32:11;;;;;;;6.85;4.10;;;;;;;11.83;84.52;96240.09;4953596;29;20047;-73
2021/08/29 04:34:39;;;;;;;6.78;4.20;;;;;;;11.85;84.40;96248.75;4954258;29;20047;-73
2021/08/29 04:37:07;;;;;;;7.47;4.38;;;;;;;11.87;84.28;96241.06;4953521;29;20052;-73
2021/08/29 04:39:35;;;;;;;6.72;3.83;;;;;;;11.87;84.46;96235.59;4953587;29;20059;-73
2021/08/29 04:42:01;;;;;;;5.07;4.30;;;;;;;11.89;84.36;96239.59;4953336;29;20517;-75
2021/08/29 04:44:28;;;;;;;7.45;4.68;;;;;;;11.93;84.83;96245.19;4953783;29;20410;-73
2021/08/29 04:46:54;;;;;;;5.90;4.38;;;;;;;12.00;85.10;96245.47;4953036;28;20502;-73
2021/08/29 04:49:21;;;;;;;6.63;4.32;;;;;;;12.03;84.44;96244.81;4953297;29;20051;-72
2021/08/29 04:51:49;;;;;;;7.38;4.15;;;;;;;12.06;84.14;96244.16;4953738;29;20047;-73
2021/08/29 04:54:15;;;;;;;5.35;3.85;;;;;;;12.07;84.38;96245.75;4953419;29;20050;-73
2021/08/29 04:56:42;;;;;;;6.40;4.28;;;;;;;12.04;84.64;96246.41;4953568;29;20521;-73
2021/08/29 04:59:08;;;;;;;7.22;4.55;;;;;;;12.06;84.12;96244.16;4953203;29;20043;-73
2021/08/29 05:01:35;;;;;;;6.30;4.40;;;;;;;12.05;84.34;96248.00;4953839;29;20051;-73
2021/08/29 05:04:01;;;;;;;7.00;4.57;;;;;;;12.08;84.99;96247.34;4953480;29;20043;-72
2021/08/29 05:06:28;;;;;;;6.55;4.90;;;;;;;12.08;84.75;96241.91;4953814;29;20058;-73
2021/08/29 05:08:55;;;;;;;7.65;5.07;;;;;;;12.11;85.33;96243.16;4953460;29;20051;-73
2021/08/29 05:11:23;;;;;;;7.22;4.88;;;;;;;12.17;85.21;96250.03;4953383;29;20062;-73
2021/08/29 05:13:49;;;;;;;6.70;4.63;;;;;;;12.15;84.46;96249.56;4953561;29;20043;-73
2021/08/29 05:16:16;;;;;;;6.78;5.05;;;;;;;12.19;84.48;96251.31;4953127;29;20062;-73
2021/08/29 05:18:42;;;;;;;5.65;4.25;;;;;;;12.21;84.57;96246.28;4953366;29;20074;-73
2021/08/29 05:21:09;;;;;;;5.80;4.60;;;;;;;12.19;84.51;96254.03;4952895;29;20054;-73
2021/08/29 05:23:35;;;;;;;6.35;4.40;;;;;;;12.23;85.12;96249.50;4953339;29;20051;-73
2021/08/29 05:26:03;;;;;;;6.88;5.10;;;;;;;12.21;84.70;96249.03;4953129;29;20137;-72
2021/08/29 05:28:30;;;;;;;6.70;4.85;;;;;;;12.27;84.74;96245.00;4953543;29;20051;-73
2021/08/29 05:30:56;;;;;;;8.63;5.22;;;;;;;12.36;84.81;96250.38;4953177;29;20535;-73
2021/08/29 05:33:23;;;;;;;8.30;5.28;;;;;;;12.39;84.76;96246.19;4952830;29;20043;-73
2021/08/29 05:35:49;;;;;;;7.72;5.20;;;;;;;12.46;84.73;96249.19;4953516;29;20073;-73
2021/08/29 05:38:16;;;;;;;7.32;5.47;;;;;;;12.53;84.75;96253.00;4952482;29;20047;-74
2021/08/29 05:40:42;;;;;;;7.38;5.60;;;;;;;12.59;84.45;96252.81;4953371;29;20044;-73
2021/08/29 05:43:10;;;;;;;8.32;5.93;;;;;;;12.61;84.22;96251.34;4952758;29;20061;-73
2021/08/29 05:45:37;;;;;;;8.05;5.70;;;;;;;12.62;84.03;96249.41;4953021;29;20054;-73
2021/08/29 05:48:03;;;;;;;6.82;5.40;;;;;;;12.63;84.34;96251.78;4952801;29;20384;-72
2021/08/29 05:50:30;;;;;;;8.23;5.65;;;;;;;12.63;84.38;96249.06;4953185;29;20058;-73
2021/08/29 05:52:56;;;;;;;11.45;5.80;;;;;;;12.64;83.84;96247.16;4952940;29;20047;-73
2021/08/29 05:55:23;;;;;;;8.13;5.75;;;;;;;12.62;83.97;96258.38;4952821;29;20054;-74
2021/08/29 05:57:49;;;;;;;9.48;5.80;;;;;;;12.63;84.34;96251.78;4952735;29;20043;-73
2021/08/29 06:00:18;;;;;;;7.70;5.22;;;;;;;12.59;84.21;96261.81;4952313;29;20049;-74
2021/08/29 06:02:45;;;;;;;7.95;5.57;;;;;;;12.60;84.30;96251.66;4952875;29;20128;-73
2021/08/29 06:05:11;;;;;;;6.68;5.30;;;;;;;12.61;84.83;96254.06;4952540;29;20044;-73
2021/08/29 06:07:38;;;;;;;7.88;5.75;;;;;;;12.61;84.98;96248.59;4953172;29;20062;-73
2021/08/29 06:10:05;;;;;;;8.38;5.47;;;;;;;12.60;85.07;96249.75;4951860;29;20051;-73
2021/08/29 06:12:32;;;;;;;7.72;5.70;;;;;;;12.63;84.94;96240.06;4953092;29;20066;-74
2021/08/29 06:14:58;;;;;;;8.80;5.80;;;;;;;12.64;85.42;96242.47;4953021;29;20047;-73
2021/08/29 06:17:26;;;;;;;6.80;4.95;;;;;;;12.64;85.12;96237.03;4952314;29;20043;-73
2021/08/29 06:19:53;;;;;;;7.78;5.35;;;;;;;12.64;85.06;96231.56;4952893;29;20051;-73
2021/08/29 06:22:19;;;;;;;9.23;5.22;;;;;;;12.61;85.46;96243.13;4952401;29;20051;-74
2021/08/29 06:24:45;;;;;;;8.57;6.30;;;;;;;12.60;85.84;96241.53;4952832;29;20055;-73
2021/08/29 06:27:12;;;;;;;9.63;6.47;;;;;;;12.62;85.90;96243.94;4952533;29;20554;-73
2021/08/29 06:29:38;;;;;;;11.02;6.47;;;;;;;12.63;85.74;96235.41;4952758;29;20051;-73
2021/08/29 06:32:06;;;;;;;10.27;6.82;;;;;;;12.64;85.49;96236.22;4951997;29;20051;-74
2021/08/29 06:34:34;;;;;;;10.02;6.75;;;;;;;12.66;85.78;96228.47;4952810;29;20047;-73
2021/08/29 06:37:01;;;;;;;10.02;6.35;;;;;;;12.72;85.66;96233.41;4952747;29;20081;-73
2021/08/29 06:39:27;;;;;;;9.88;6.53;;;;;;;12.73;85.42;96236.94;4952215;29;20054;-73
2021/08/29 06:41:54;;;;;;;10.43;6.80;;;;;;;12.70;85.57;96224.75;4952708;29;20047;-74
2021/08/29 06:44:20;;;;;;;11.32;7.28;;;;;;;12.77;85.98;96235.94;4951960;29;20054;-73
2021/08/29 06:46:47;;;;;;;10.68;7.40;;;;;;;12.86;85.83;96233.13;4952637;29;20414;-73
2021/08/29 06:49:13;;;;;;;12.60;8.48;;;;;;;12.85;85.62;96231.53;4952121;29;20051;-73
2021/08/29 06:51:41;;;;;;;13.85;9.18;;;;;;;12.89;85.68;96237.91;4952605;29;20406;-74
2021/08/29 06:54:08;;;;;;;11.80;8.38;;;;;;;13.00;84.89;96238.31;4952099;29;20055;-75
2021/08/29 06:56:34;;;;;;;12.13;8.63;;;;;;;13.05;84.83;96241.63;4952692;29;20419;-75
2021/08/29 06:59:01;;;;;;;11.18;8.50;;;;;;;13.12;84.58;96245.75;4952391;29;20051;-75
2021/08/29 07:01:27;;;;;;;14.07;8.50;;;;;;;13.14;84.56;96238.81;4952268;29;20052;-76
2021/08/29 07:03:53;;;;;;;10.77;8.15;;;;;;;13.21;84.47;96236.38;4952631;29;20052;-75
2021/08/29 07:06:20;;;;;;;12.55;8.75;;;;;;;13.24;84.29;96237.59;4951744;29;20446;-75
2021/08/29 07:08:48;;;;;;;12.13;8.77;;;;;;;13.16;84.17;96236.53;4952187;29;20054;-74
2021/08/29 07:11:14;;;;;;;12.40;8.20;;;;;;;13.17;84.52;96240.88;4953684;28;20051;-75
2021/08/29 07:13:41;;;;;;;13.07;9.25;;;;;;;13.19;84.87;96233.13;4955865;29;20163;-74
2021/08/29 07:16:08;;;;;;;12.50;8.20;;;;;;;13.24;84.77;96234.88;4955450;29;20047;-74
2021/08/29 07:18:34;;;;;;;12.05;9.23;;;;;;;13.20;84.83;96237.44;4955568;29;20047;-75
2021/08/29 07:21:00;;;;;;;14.02;8.82;;;;;;;13.13;85.41;96237.22;4955701;29;20054;-76
2021/08/29 07:23:29;;;;;;;13.90;9.80;;;;;;;13.11;86.00;96238.69;4955310;29;20047;-74
2021/08/29 07:25:57;;;;;;;15.48;9.82;;;;;;;13.04;85.97;96241.94;4955803;29;20055;-74
2021/08/29 07:28:24;;;;;;;11.95;8.65;;;;;;;13.02;86.11;96238.78;4955129;29;20521;-75
2021/08/29 07:30:50;;;;;;;13.68;9.55;;;;;;;13.02;86.16;96236.84;4955572;29;20054;-74
2021/08/29 07:33:17;;;;;;;14.38;9.52;;;;;;;13.01;86.56;96234.44;4954913;29;20619;-73
2021/08/29 07:35:43;;;;;;;15.43;10.68;;;;;;;12.97;86.81;96234.31;4955439;29;20047;-73
2021/08/29 07:38:10;;;;;;;12.43;8.93;;;;;;;12.95;87.05;96236.59;4954676;29;20043;-73
2021/08/29 07:40:36;;;;;;;14.50;9.52;;;;;;;12.92;87.20;96236.44;4955387;29;20062;-76
2021/08/29 07:43:04;;;;;;;11.85;8.98;;;;;;;12.85;87.64;96247.13;4955112;29;20047;-75
2021/08/29 07:45:30;;;;;;;12.52;9.38;;;;;;;12.71;87.40;96248.19;4955421;29;20503;-72
2021/08/29 07:47:57;;;;;;;11.13;8.45;;;;;;;12.70;88.20;96245.81;4955035;29;20411;-75
2021/08/29 07:50:24;;;;;;;13.77;8.88;;;;;;;12.68;89.22;96240.66;4954868;29;20043;-73
2021/08/29 07:52:51;;;;;;;14.20;9.27;;;;;;;12.72;90.01;96249.78;4955180;29;20495;-73
2021/08/29 07:55:19;;;;;;;16.40;10.40;;;;;;;12.72;89.89;96244.31;4954479;29;20129;-73
2021/08/29 07:57:45;;;;;;;13.25;9.20;;;;;;;12.81;90.32;96241.53;4955017;29;20082;-73
2021/08/29 08:00:15;;;;;;;12.40;8.85;;;;;;;12.82;89.97;96236.88;4954742;29;20512;-73
2021/08/29 08:02:41;;;;;;;12.73;9.68;;;;;;;12.76;89.89;96248.00;4954848;29;20458;-73
2021/08/29 08:05:08;;;;;;;13.98;9.18;;;;;;;12.70;90.09;96246.59;4954334;29;20049;-73
2021/08/29 08:07:35;;;;;;;15.55;9.50;;;;;;;12.76;90.69;96250.72;4954786;29;20047;-73
2021/08/29 08:10:02;;;;;;;12.43;8.80;;;;;;;12.73;90.15;96239.66;4954071;29;20052;-72
2021/08/29 08:12:28;;;;;;;12.27;8.13;;;;;;;12.75;90.08;96249.13;4954810;29;20055;-73
2021/08/29 08:14:54;;;;;;;13.32;8.70;;;;;;;12.71;89.67;96252.88;4953000;29;20051;-73
2021/08/29 08:17:22;;;;;;;12.43;8.35;;;;;;;12.67;89.99;96249.19;4953999;29;20498;-73
2021/08/29 08:19:49;;;;;;;12.52;8.23;;;;;;;12.67;89.92;96252.72;4954334;29;20058;-73
2021/08/29 08:22:16;;;;;;;14.93;9.48;;;;;;;12.62;89.70;96250.19;4953862;28;20059;-74
2021/08/29 08:24:43;;;;;;;11.95;8.48;;;;;;;12.62;89.76;96255.66;4954673;29;20055;-73
2021/08/29 08:27:09;;;;;;;14.20;10.13;;;;;;;12.63;90.15;96254.53;4953907;29;20422;-73
2021/08/29 08:29:36;;;;;;;10.95;8.38;;;;;;;12.66;89.76;96253.88;4954407;29;20054;-74
2021/08/29 08:32:02;;;;;;;11.15;8.77;;;;;;;12.67;90.06;96258.19;4954029;29;20078;-73
2021/08/29 08:34:30;;;;;;;10.77;7.93;;;;;;;12.70;90.51;96257.53;4954201;29;20058;-74
2021/08/29 08:36:56;;;;;;;12.70;9.05;;;;;;;12.72;90.38;96254.47;4954088;29;20082;-73
2021/08/29 08:39:23;;;;;;;10.07;7.75;;;;;;;12.76;90.19;96252.66;4953258;29;20051;-76
2021/08/29 08:41:49;;;;;;;9.88;7.18;;;;;;;12.78;90.38;96247.66;4953766;29;20049;-73
2021/08/29 08:44:17;;;;;;;7.22;4.60;;;;;;;12.84;91.06;96245.50;4953646;29;20047;-73
2021/08/29 08:46:45;;;;;;;3.90;3.00;;;;;;;12.81;89.97;96260.66;4954276;29;20047;-73
2021/08/29 08:49:12;;;;;;;4.60;2.63;;;;;;;12.84;88.92;96257.25;4953705;29;20136;-73
2021/08/29 08:51:46;;;;;;;3.63;1.70;;;;;;;12.82;88.51;96251.31;4953956;29;20392;-73
2021/08/29 08:54:14;;;;;;;1.65;1.23;;;;;;;12.77;87.44;96257.00;4953379;29;20047;-73
2021/08/29 08:56:41;;;;;;;1.17;0.90;;;;;;;12.66;87.23;96259.31;4953779;29;20051;-76
2021/08/29 08:59:08;;;;;;;1.67;1.27;;;;;;;12.60;88.06;96257.94;4952889;29;20151;-73
2021/08/29 09:01:35;;;;;;;2.25;1.40;;;;;;;12.61;89.22;96259.53;4952750;29;20051;-75
2021/08/29 09:04:02;;;;;;;2.47;1.70;;;;;;;12.61;89.41;96265.00;4952157;29;20049;-73
2021/08/29 09:06:29;;;;;;;2.92;1.95;;;;;;;12.59;90.03;96266.47;4953054;29;20106;-75
2021/08/29 09:08:58;;;;;;;3.22;2.10;;;;;;;12.55;91.38;96260.88;4952788;29;20051;-76
2021/08/29 09:11:24;;;;;;;2.83;1.23;;;;;;;12.39;89.41;96263.38;4953012;29;20495;-77
2021/08/29 09:13:57;;;;;;;4.57;1.13;;;;;;;12.27;89.29;96255.91;4952882;29;20049;-75
2021/08/29 09:16:26;;;;;;;1.83;1.33;;;;;;;12.28;89.43;96262.97;4953223;29;20051;-76
2021/08/29 09:18:54;;;;;;;2.25;1.55;;;;;;;12.28;90.07;96257.50;4953525;29;20073;-77
2021/08/29 09:21:22;;;;;;;2.20;1.80;;;;;;;12.28;90.28;96265.69;4953142;29;22662;-76
2021/08/29 09:23:49;;;;;;;3.80;2.53;;;;;;;12.28;90.89;96262.19;4953367;29;20043;-76
2021/08/29 09:26:18;;;;;;;3.95;2.72;;;;;;;12.33;91.15;96258.47;4953028;29;20050;-76
2021/08/29 09:28:46;;;;;;;3.85;3.00;;;;;;;12.38;91.14;96255.53;4953658;29;20055;-77
2021/08/29 09:31:14;;;;;;;4.32;2.80;;;;;;;12.36;90.58;96263.25;4952882;29;20510;-76
2021/08/29 09:33:40;;;;;;;5.18;3.05;;;;;;;12.32;90.69;96263.13;4952728;28;20051;-77
2021/08/29 09:36:09;;;;;;;4.28;2.90;;;;;;;12.35;91.44;96250.72;4952893;29;20055;-76
2021/08/29 09:38:40;;;;;;;4.85;3.20;;;;;;;12.39;91.38;96251.66;4953118;29;20052;-76
2021/08/29 09:41:23;;;;;;;5.15;3.67;;;;;;;12.39;91.25;96259.84;4949132;28;20426;-75
2021/08/29 09:43:50;;;;;;;4.90;3.60;;;;;;;12.39;90.99;96251.66;4951330;28;20054;-75
2021/08/29 09:46:17;;;;;;;5.57;3.95;;;;;;;12.40;91.63;96250.53;4943610;28;20051;-76
2021/08/29 09:48:48;;;;;;;5.15;4.07;;;;;;;12.48;92.44;96250.47;4950446;29;20074;-75
2021/08/29 09:51:15;;;;;;;4.97;4.13;;;;;;;12.47;91.45;96245.31;4950025;29;20066;-76
2021/08/29 09:53:44;;;;;;;5.50;4.30;;;;;;;12.45;91.48;96236.69;4950324;29;20079;-75
2021/08/29 09:56:22;;;;;;;5.35;4.13;;;;;;;12.48;91.91;96244.22;4949879;28;20748;-76
2021/08/29 09:58:49;;;;;;;6.85;5.13;;;;;;;12.52;92.13;96242.41;4950055;28;20083;-76
2021/08/29 10:01:17;;;;;;;7.20;5.15;;;;;;;12.55;92.43;96241.75;4949996;28;20499;-75
2021/08/29 10:03:45;;;;;;;9.70;6.13;;;;;;;12.62;93.07;96236.53;4950242;29;20053;-75
2021/08/29 10:06:17;;;;;;;8.77;6.63;;;;;;;12.67;93.12;96230.06;4949868;29;20057;-76
2021/08/29 10:08:45;;;;;;;11.00;7.65;;;;;;;12.73;93.52;96231.47;4949238;28;20059;-75
2021/08/29 10:11:13;;;;;;;10.40;7.55;;;;;;;12.85;94.10;96237.00;4949816;29;20047;-75
2021/08/29 10:13:41;;;;;;;9.25;7.03;;;;;;;12.94;94.07;96239.63;4949686;29;20569;-76
2021/08/29 10:16:09;;;;;;;9.05;7.20;;;;;;;13.01;93.62;96234.44;4949422;29;20089;-75
2021/08/29 10:18:40;;;;;;;7.25;6.00;;;;;;;13.03;92.54;96232.97;4950082;29;20059;-76
2021/08/29 10:21:09;;;;;;;11.80;7.72;;;;;;;13.10;92.91;96237.88;4949584;29;20051;-74
2021/08/29 10:23:39;;;;;;;10.45;8.10;;;;;;;13.17;92.81;96238.13;4949913;29;20047;-75
2021/08/29 10:26:07;;;;;;;9.32;6.70;;;;;;;13.24;91.95;96238.41;4949479;29;20406;-75
2021/08/29 10:28:39;;;;;;;6.97;5.50;;;;;;;13.26;91.07;96236.16;4950196;29;20498;-74
2021/08/29 10:31:11;;;;;;;7.47;5.32;;;;;;;13.21;90.63;96236.38;4949777;29;20055;-74
2021/08/29 10:33:39;;;;;;;6.13;4.25;;;;;;;13.14;90.79;96240.75;4949183;29;20047;-76
2021/08/29 10:36:06;;;;;;;9.95;4.55;;;;;;;13.07;91.20;96238.56;4949432;29;20503;-77
2021/08/29 10:38:33;;;;;;;6.65;5.45;;;;;;;12.96;91.53;96240.13;4949019;29;20065;-77
2021/08/29 10:41:00;;;;;;;6.28;4.45;;;;;;;12.93;91.44;96238.03;4949893;29;20055;-75
2021/08/29 10:43:28;;;;;;;6.38;4.53;;;;;;;12.94;91.77;96234.16;4949708;29;21016;-74
2021/08/29 10:45:54;;;;;;;6.88;4.55;;;;;;;12.99;91.59;96232.03;4952299;28;20054;-74
2021/08/29 10:48:23;;;;;;;6.68;5.30;;;;;;;13.00;91.74;96230.91;4952847;29;20050;-74
2021/08/29 10:50:51;;;;;;;7.90;6.30;;;;;;;12.98;92.00;96224.97;4953634;29;20051;-74
2021/08/29 10:53:28;;;;;;;8.90;6.38;;;;;;;13.06;93.14;96220.56;4952991;29;20050;-78
2021/08/29 10:56:29;;;;;;;8.43;6.43;;;;;;;13.12;93.07;96219.22;4953157;29;20061;-75
2021/08/29 10:59:34;;;;;;;9.40;7.20;;;;;;;13.31;93.90;96215.97;4953022;29;20082;-74
2021/08/29 11:02:12;;;;;;;5.28;3.63;;;;;;;13.29;91.64;96212.78;4933150;29;20054;-75
2021/08/29 11:04:50;;;;;;;6.18;5.00;;;;;;;13.25;91.25;96209.91;4952964;29;20533;-74
2021/08/29 11:07:50;;;;;;;6.78;5.22;;;;;;;13.51;93.21;96214.28;4952760;29;20158;-74
2021/08/29 11:10:45;;;;;;;8.35;6.28;;;;;;;13.51;92.90;96212.34;4874420;29;20049;-74
2021/08/29 11:13:40;;;;;;;8.98;5.45;;;;;;;13.54;91.45;96213.63;4950803;29;20111;-76
2021/08/29 11:16:25;;;;;;;6.50;4.90;;;;;;;13.60;91.21;96211.47;4952635;29;20051;-75
2021/08/29 11:19:19;;;;;;;5.25;3.45;;;;;;;13.40;89.03;96224.09;4952786;29;20626;-75
2021/08/29 11:22:19;;;;;;;8.02;4.15;;;;;;;13.20;90.49;96215.56;4952759;29;20055;-78
2021/08/29 11:24:51;;;;;;;5.07;4.10;;;;;;;13.22;90.95;96207.09;4952869;29;20059;-74
2021/08/29 11:27:50;;;;;;;8.27;5.23;;;;;;;13.32;91.38;96212.91;4952138;29;20052;-75
2021/08/29 11:30:18;;;;;;;7.75;5.97;;;;;;;13.35;92.00;96205.97;4952207;29;20290;-76
2021/08/29 11:32:51;;;;;;;8.45;6.70;;;;;;;13.47;92.90;96205.19;4952814;29;20055;-74
2021/08/29 11:35:24;;;;;;;3.90;3.03;;;;;;;13.49;91.71;96206.44;4952107;29;20538;-76
2021/08/29 11:38:04;;;;;;;4.85;2.78;;;;;;;13.37;90.24;96209.16;4952248;29;20427;-76